Airfield :
LOGIN :

Register | Disclaimer

   EN    FR    IT 

 










Legend :    VFR   Marginal VFR   IFR   Intensive IFR   Very Intensive IFR
Visi :
Ceiling :
>= 8 km
>= 3000ft
5 to 8 km
1000 to 3000 ft
1500m to 5 km
500 to 1000 ft
800 to 1500m
200 to 500 ft
< 800m
< 200 ft
Symbols :   Thunderstorms  Fog  Heavy snow  Heavy precipitations  Wind > 20 kt
SIGMETs :     Misc.  Thunderstorms  Icing  Turbulence  Mountain Waves  Volcanic Ashes






- Airport Elevation : 162 ft
- IATA code : BOD


LFBD - Bordeaux / Merignac

CURRENT METAR :
  • 180430Z AUTO 21005KT 9999 BKN007 BKN038 BKN048 17/17 Q1012 TEMPO 3000 BR BKN003

EXPIRED METARs :
  • 180400Z AUTO 21007KT 9999 SCT013 SCT029 BKN039 17/17 Q1012 TEMPO 0800 BCFG VV///
  • 180330Z AUTO 20007KT 9999 FEW006 BKN014 17/17 Q1011 TEMPO 0800 BCFG VV///
  • 180300Z AUTO 22006KT 9999 BKN006 BKN015 18/17 Q1011 TEMPO 0800 BCFG VV///
  • 180230Z AUTO 24009KT 9999 BKN006 BKN013 OVC018 18/17 Q1010 TEMPO 0800 BCFG VV///
  • 180200Z AUTO 24011KT 9999 OVC006 18/17 Q1010 TEMPO 0800 BCFG VV///

TAF AMD TAF LFBD
Valid from the 18 at 04:00 until the 19 at 06:00 UTC


180414Z 1804/1906 22007KT 9999 SCT014 BKN035 TX27/1814Z TN17/1905Z
TEMPO 1804/1808 3000 BR BKN003
BECMG 1808/1810 BKN030
BECMG 1812/1814 CAVOK
ATIS : +33 5 57 92 81 04



MET'MAP, your aeronautical weather chart ! - Copyright ORBIFLY December 2007 - Disclaimer

ORBIFLY MET'MAP TEAM :

Programming & Development : Alexandra Zaïnal
Concept & original design : Baudouin d'Aumeries
Assistance for programming : Marc-Olivier Méhu
Technical & hardware support : Manuel Goepfert

Contact : metmap@orbifly.com




SOURCES & CREDITS :

   NOAA